Abu Dhabi, UAE

7:01 AM GST on August 22, 2014 (GMT +0400)
Abu Dhabi International | Change Station
CLOSE
Current Station
Airport
Location: Abu Dhabi,
Elevation: 89 ft
Nearby Weather Stations

Elev 89 ft 24.43 °N, 54.65 °E | Updated 1 hour ago

Clear
Clear
86 °F
Feels Like 93 °F
N
6
Wind Variable Wind from ENE

Today
High -- | Low -- °F
--% Chance of Precip.
Yesterday
High -- | Low -- °F
Precip. -- in
5:58 AM 6:49 PM
Waning Crescent, 11% visible
Pressure 29.50 in
Visibility 4.3 miles
Clouds
Heat Index 93 °F
Dew Point 73 °F
Humidity 66%
Rainfall 0.00 in
Snow Depth Not available.
UV Not available.
Pollen Not available.
Air Quality Not available.
Flu Activity Not available.
METAR OMAA 220200Z 07005KT 7000 NSC 30/23 Q0999 A2952 NOSIG

More Conditions Fewer Conditions

Pressure 29.50 in
Visibility 4.3 miles
Clouds
Heat Index 93 °F
Dew Point 73 °F
Humidity 66%
Rainfall 0.00 in
Snow Depth Not available.
UV Not available.
Pollen Not available.
Air Quality Not available.
Flu Activity Not available.
METAR OMAA 220200Z 07005KT 7000 NSC 30/23 Q0999 A2952 NOSIG

More Conditions Fewer Conditions

10-Day Weather Forecast

Almanac

Astronomy

Aug. 22, 2014 Rise Set
Actual Time 5:58 AM GST 6:49 PM GST
Civil Twilight 5:35 AM GST 7:12 PM GST
Nautical Twilight 5:07 AM GST 7:40 PM GST
Astronomical Twilight 4:39 AM GST 8:08 PM GST
Moon 3:09 AM GST 4:35 PM GST
Length of Visible Light 13h 37m
Length of Day
12h 50m
Tomorrow will be 1m 17s shorter.
Waning Crescent, 11% of the Moon is Illuminated
Aug 21
Waning Crescent
Aug 25
New
Sep 2
First Quarter
Sep 8
Full
Sep 15
Last Quarter

Yesterday's Extremes

Country Highs Country Lows

Community

WunderPhotos

Upload Photos

1,746,112 photos uploaded!

WunderBlogs® & News

Nearby

Snow Depth

Not available.

Earthquake Activity

City Distance Mag. Time & Date
No recent earthquake activity has been reported nearby.
Minimum magnitude displayed is 2.5.

Coastal Water Temperatures

Place Temperature
No Stations Reporting

Nearby Weather Stations